createdAt,value
2023-02-16T00:00:58.682Z,5.51
2023-02-16T00:01:58.743Z,5.54
2023-02-16T00:02:58.678Z,5.50
2023-02-16T00:03:58.655Z,5.53
2023-02-16T00:04:58.644Z,5.43
2023-02-16T00:05:58.649Z,5.47
2023-02-16T00:06:58.659Z,5.44
2023-02-16T00:07:58.613Z,5.39
2023-02-16T00:08:58.600Z,5.48
2023-02-16T00:09:58.595Z,5.43
2023-02-16T00:10:58.585Z,5.39
2023-02-16T00:11:58.594Z,5.43
2023-02-16T00:12:58.600Z,5.38
2023-02-16T00:13:58.563Z,5.39
2023-02-16T00:14:58.552Z,5.43
2023-02-16T00:15:58.574Z,5.35
2023-02-16T00:16:58.564Z,5.39
2023-02-16T00:17:58.528Z,5.48
2023-02-16T00:18:58.534Z,5.51
2023-02-16T00:19:58.519Z,5.47
2023-02-16T00:20:58.502Z,5.38
2023-02-16T00:21:58.490Z,5.46
2023-02-16T00:22:58.510Z,5.46
2023-02-16T00:23:58.480Z,5.47
2023-02-16T00:24:58.473Z,5.38
2023-02-16T00:25:58.468Z,5.36
2023-02-16T00:26:58.476Z,5.44
2023-02-16T00:27:58.464Z,5.44
2023-02-16T00:28:58.475Z,5.32
2023-02-16T00:29:58.475Z,5.41
2023-02-16T00:30:58.480Z,5.41
2023-02-16T00:31:58.567Z,5.38
2023-02-16T00:32:58.409Z,5.43
2023-02-16T00:33:58.437Z,5.41
2023-02-16T00:34:58.388Z,5.39
2023-02-16T00:35:58.385Z,5.50
2023-02-16T00:36:58.381Z,5.47
2023-02-16T00:37:58.369Z,5.39
2023-02-16T00:38:58.368Z,5.41
2023-02-16T00:39:58.360Z,5.43
2023-02-16T00:40:58.356Z,5.29
2023-02-16T00:41:58.330Z,5.38
2023-02-16T00:42:58.330Z,5.39
2023-02-16T00:43:58.321Z,5.39
2023-02-16T00:44:58.307Z,5.38
2023-02-16T00:45:58.307Z,5.39
2023-02-16T00:46:58.327Z,5.38
2023-02-16T00:47:58.270Z,5.38
2023-02-16T00:48:58.274Z,5.29
2023-02-16T00:49:58.328Z,5.33
2023-02-16T00:50:58.255Z,5.30
2023-02-16T00:51:58.256Z,5.30
2023-02-16T00:52:58.272Z,5.29
2023-02-16T00:53:58.241Z,5.30
2023-02-16T00:54:58.230Z,5.28
2023-02-16T00:55:58.215Z,5.23
2023-02-16T00:56:58.202Z,5.20
2023-02-16T00:57:58.195Z,5.23
2023-02-16T00:58:58.181Z,5.18
2023-02-16T00:59:58.187Z,5.21
2023-02-16T01:00:58.199Z,5.21
2023-02-16T01:01:58.171Z,5.28
2023-02-16T01:02:58.149Z,5.25
2023-02-16T01:03:58.169Z,5.26
2023-02-16T01:04:58.158Z,5.14
2023-02-16T01:05:58.146Z,5.28
2023-02-16T01:06:58.152Z,5.26
2023-02-16T01:07:58.131Z,5.20
2023-02-16T01:08:58.162Z,5.21
2023-02-16T01:09:58.097Z,5.20
2023-02-16T01:10:58.080Z,5.20
2023-02-16T01:11:58.094Z,5.12
2023-02-16T01:12:58.060Z,5.18
2023-02-16T01:13:58.047Z,5.15
2023-02-16T01:14:58.048Z,5.17
2023-02-16T01:15:58.078Z,5.14
2023-02-16T01:16:58.025Z,5.14
2023-02-16T01:17:58.025Z,5.04
2023-02-16T01:18:58.018Z,5.08
2023-02-16T01:19:58.009Z,5.07
2023-02-16T01:20:57.996Z,5.14
2023-02-16T01:21:57.989Z,5.07
2023-02-16T01:22:57.992Z,5.10
2023-02-16T01:23:57.975Z,5.08
2023-02-16T01:24:57.955Z,5.08
2023-02-16T01:25:57.949Z,5.10
2023-02-16T01:26:57.949Z,5.08
2023-02-16T01:27:57.928Z,5.04
2023-02-16T01:28:57.927Z,5.02
2023-02-16T01:29:57.941Z,5.02
2023-02-16T01:30:58.020Z,5.04
2023-02-16T01:31:58.053Z,5.08
2023-02-16T01:32:57.904Z,5.02
2023-02-16T01:33:57.879Z,5.07
2023-02-16T01:34:57.871Z,5.02
2023-02-16T01:35:57.862Z,4.93
2023-02-16T01:36:57.861Z,5.05
2023-02-16T01:37:57.856Z,5.00
2023-02-16T01:38:57.848Z,4.96
2023-02-16T01:39:57.842Z,4.93
2023-02-16T01:40:57.824Z,4.97
2023-02-16T01:41:57.817Z,4.94
2023-02-16T01:42:57.808Z,4.96
2023-02-16T01:43:57.787Z,4.94
2023-02-16T01:44:57.806Z,4.96
2023-02-16T01:45:57.793Z,4.93
2023-02-16T01:46:57.771Z,4.96
2023-02-16T01:47:57.761Z,4.94
2023-02-16T01:48:57.763Z,4.90
2023-02-16T01:49:57.756Z,4.93
2023-02-16T01:50:57.733Z,4.86
2023-02-16T01:51:57.730Z,4.93
2023-02-16T01:52:57.716Z,4.93
2023-02-16T01:53:57.707Z,4.96
2023-02-16T01:54:57.698Z,4.87
2023-02-16T01:55:57.693Z,4.89
2023-02-16T01:56:57.678Z,4.84
2023-02-16T01:57:57.682Z,4.90
2023-02-16T01:58:57.692Z,4.92
2023-02-16T01:59:57.657Z,4.75
2023-02-16T02:00:57.646Z,4.94
2023-02-16T02:01:57.694Z,4.75
2023-02-16T02:02:57.661Z,4.77
2023-02-16T02:03:57.616Z,4.74
2023-02-16T02:04:57.619Z,4.77
2023-02-16T02:05:57.602Z,4.87
2023-02-16T02:06:57.605Z,4.78
2023-02-16T02:07:57.590Z,4.82
2023-02-16T02:08:57.572Z,4.74
2023-02-16T02:09:57.591Z,4.77
2023-02-16T02:10:57.568Z,4.77
2023-02-16T02:11:57.548Z,4.77
2023-02-16T02:12:57.547Z,4.75
2023-02-16T02:13:57.534Z,4.74
2023-02-16T02:14:57.530Z,4.75
2023-02-16T02:15:57.546Z,4.80
2023-02-16T02:16:57.514Z,4.71
2023-02-16T02:17:57.490Z,4.73
2023-02-16T02:18:57.488Z,4.75
2023-02-16T02:19:57.480Z,4.73
2023-02-16T02:20:57.475Z,4.73
2023-02-16T02:21:57.462Z,4.74
2023-02-16T02:22:57.453Z,4.71
2023-02-16T02:23:57.437Z,4.71
2023-02-16T02:24:57.458Z,4.67
2023-02-16T02:25:57.443Z,4.70
2023-02-16T02:26:57.429Z,4.75
2023-02-16T02:27:57.406Z,4.70
2023-02-16T02:28:57.399Z,4.68
2023-02-16T02:29:57.416Z,4.74
2023-02-16T02:30:57.425Z,4.66
2023-02-16T02:31:57.487Z,4.63
2023-02-16T02:32:57.368Z,4.63
2023-02-16T02:33:57.356Z,4.66
2023-02-16T02:34:57.350Z,4.62
2023-02-16T02:35:57.338Z,4.62
2023-02-16T02:36:57.326Z,4.70
2023-02-16T02:37:57.314Z,4.68
2023-02-16T02:38:57.305Z,4.73
2023-02-16T02:39:57.302Z,4.73
2023-02-16T02:40:57.287Z,4.62
2023-02-16T02:41:57.294Z,4.66
2023-02-16T02:42:57.278Z,4.66
2023-02-16T02:43:57.273Z,4.63
2023-02-16T02:44:57.269Z,4.70
2023-02-16T02:45:57.249Z,4.52
2023-02-16T02:46:57.310Z,4.70
2023-02-16T02:47:57.233Z,4.63
2023-02-16T02:48:57.221Z,4.63
2023-02-16T02:49:57.226Z,4.70
2023-02-16T02:50:57.214Z,4.62
2023-02-16T02:51:57.214Z,4.63
2023-02-16T02:52:57.182Z,4.56
2023-02-16T02:53:57.190Z,4.58
2023-02-16T02:54:57.185Z,4.67
2023-02-16T02:55:57.167Z,4.62
2023-02-16T02:56:57.178Z,4.56
2023-02-16T02:57:57.139Z,4.62
2023-02-16T02:58:57.140Z,4.67
2023-02-16T02:59:57.137Z,4.63
2023-02-16T03:00:57.148Z,4.55
2023-02-16T03:01:57.133Z,4.59
2023-02-16T03:02:57.105Z,4.67
2023-02-16T03:03:57.091Z,4.62
2023-02-16T03:04:57.092Z,4.53
2023-02-16T03:05:57.074Z,4.52
2023-02-16T03:06:57.068Z,4.63
2023-02-16T03:07:57.048Z,4.56
2023-02-16T03:08:57.053Z,4.56
2023-02-16T03:09:57.040Z,4.55
2023-02-16T03:10:57.032Z,4.59
2023-02-16T03:11:57.017Z,4.56
2023-02-16T03:12:57.003Z,4.55
2023-02-16T03:13:57.000Z,4.60
2023-02-16T03:14:56.991Z,4.50
2023-02-16T03:15:57.044Z,4.56
2023-02-16T03:16:56.968Z,4.56
2023-02-16T03:17:56.977Z,4.60
2023-02-16T03:18:56.956Z,4.55
2023-02-16T03:19:56.952Z,4.53
2023-02-16T03:20:56.930Z,4.58
2023-02-16T03:21:56.926Z,4.49
2023-02-16T03:22:56.932Z,4.60
2023-02-16T03:23:56.927Z,4.52
2023-02-16T03:24:56.896Z,4.49
2023-02-16T03:25:56.905Z,4.52
2023-02-16T03:26:56.900Z,4.55
2023-02-16T03:27:56.872Z,4.55
2023-02-16T03:28:56.874Z,4.53
2023-02-16T03:29:56.926Z,4.53
2023-02-16T03:30:56.872Z,4.60
2023-02-16T03:31:56.903Z,4.50
2023-02-16T03:32:56.826Z,4.52
2023-02-16T03:33:56.840Z,4.52
2023-02-16T03:34:56.800Z,4.53
2023-02-16T03:35:56.803Z,4.56
2023-02-16T03:36:56.797Z,4.53
2023-02-16T03:37:56.801Z,4.55
2023-02-16T03:38:56.772Z,4.52
2023-02-16T03:39:56.763Z,4.56
2023-02-16T03:40:56.755Z,4.55
2023-02-16T03:41:56.750Z,4.55
2023-02-16T03:42:56.733Z,4.55
2023-02-16T03:43:56.736Z,4.56
2023-02-16T03:44:56.720Z,4.55
2023-02-16T03:45:56.762Z,4.55
2023-02-16T03:46:56.695Z,4.52
2023-02-16T03:47:56.696Z,4.49
2023-02-16T03:48:56.688Z,4.48
2023-02-16T03:49:56.694Z,4.55
2023-02-16T03:50:56.684Z,4.52
2023-02-16T03:51:56.652Z,4.53
2023-02-16T03:52:56.655Z,4.52
2023-02-16T03:53:56.638Z,4.56
2023-02-16T03:54:56.646Z,4.55
2023-02-16T03:55:56.629Z,4.58
2023-02-16T03:56:56.650Z,4.45
2023-02-16T03:57:56.609Z,4.42
2023-02-16T03:58:56.595Z,4.48
2023-02-16T03:59:59.201Z,4.44
2023-02-16T04:00:56.579Z,4.48
2023-02-16T04:01:56.674Z,4.44
2023-02-16T04:02:56.563Z,4.49
2023-02-16T04:03:56.608Z,4.48
2023-02-16T04:04:56.535Z,4.41
2023-02-16T04:05:56.533Z,4.49
2023-02-16T04:06:56.523Z,4.40
2023-02-16T04:07:56.521Z,4.48
2023-02-16T04:08:56.530Z,4.37
2023-02-16T04:09:56.501Z,4.48
2023-02-16T04:10:56.472Z,4.48
2023-02-16T04:11:56.480Z,4.48
2023-02-16T04:12:56.461Z,4.44
2023-02-16T04:13:56.456Z,4.42
2023-02-16T04:14:56.441Z,4.42
2023-02-16T04:15:56.454Z,4.45
2023-02-16T04:16:56.425Z,4.40
2023-02-16T04:17:56.435Z,4.37
2023-02-16T04:18:56.424Z,4.50
2023-02-16T04:19:56.411Z,4.40
2023-02-16T04:20:56.417Z,4.42
2023-02-16T04:21:56.388Z,4.44
2023-02-16T04:22:56.367Z,4.35
2023-02-16T04:23:56.367Z,4.34
2023-02-16T04:24:56.369Z,4.32
2023-02-16T04:25:56.349Z,4.40
2023-02-16T04:26:56.356Z,4.35
2023-02-16T04:27:56.370Z,4.24
2023-02-16T04:28:56.319Z,4.30
2023-02-16T04:29:56.354Z,4.19
2023-02-16T04:30:56.443Z,4.35
2023-02-16T04:31:56.418Z,4.35
2023-02-16T04:32:56.267Z,4.37
2023-02-16T04:33:56.273Z,4.34
2023-02-16T04:34:56.387Z,4.32
2023-02-16T04:35:56.256Z,4.35
2023-02-16T04:36:56.239Z,4.37
2023-02-16T04:37:56.232Z,4.31
2023-02-16T04:38:56.224Z,4.30
2023-02-16T04:39:56.226Z,4.35
2023-02-16T04:40:56.203Z,4.41
2023-02-16T04:41:56.201Z,4.37
2023-02-16T04:42:56.179Z,4.41
2023-02-16T04:43:56.167Z,4.38
2023-02-16T04:44:56.160Z,4.38
2023-02-16T04:45:56.198Z,4.35
2023-02-16T04:46:56.151Z,4.41
2023-02-16T04:47:56.145Z,4.34
2023-02-16T04:48:56.127Z,4.31
2023-02-16T04:49:56.139Z,4.31
2023-02-16T04:50:56.124Z,4.32
2023-02-16T04:51:56.117Z,4.34
2023-02-16T04:52:56.086Z,4.32
2023-02-16T04:53:56.098Z,4.31
2023-02-16T04:54:56.066Z,4.26
2023-02-16T04:55:56.061Z,4.22
2023-02-16T04:56:56.058Z,4.34
2023-02-16T04:57:56.059Z,4.35
2023-02-16T04:58:56.040Z,4.19
2023-02-16T04:59:56.040Z,4.20
2023-02-16T05:00:56.010Z,4.32
2023-02-16T05:01:56.143Z,4.19
2023-02-16T05:02:56.022Z,4.22
2023-02-16T05:03:55.986Z,4.26
2023-02-16T05:04:55.986Z,4.20
2023-02-16T05:05:55.966Z,4.24
2023-02-16T05:06:56.012Z,4.24
2023-02-16T05:07:55.947Z,4.19
2023-02-16T05:08:55.970Z,4.22
2023-02-16T05:09:55.940Z,4.32
2023-02-16T05:10:55.917Z,4.35
2023-02-16T05:11:55.920Z,4.24
2023-02-16T05:12:55.903Z,4.26
2023-02-16T05:13:55.901Z,4.24
2023-02-16T05:14:55.901Z,4.23
2023-02-16T05:15:55.903Z,4.26
2023-02-16T05:16:55.873Z,4.30
2023-02-16T05:17:55.860Z,4.20
2023-02-16T05:18:58.392Z,4.17
2023-02-16T05:19:55.849Z,4.17
2023-02-16T05:20:55.826Z,4.10
2023-02-16T05:21:55.834Z,4.13
2023-02-16T05:22:55.902Z,4.10
2023-02-16T05:23:55.797Z,4.08
2023-02-16T05:24:55.810Z,4.06
2023-02-16T05:25:55.813Z,4.12
2023-02-16T05:26:55.772Z,4.12
2023-02-16T05:27:55.821Z,4.10
2023-02-16T05:28:55.770Z,4.01
2023-02-16T05:29:55.784Z,4.04
2023-02-16T05:30:55.756Z,4.05
2023-02-16T05:31:55.840Z,4.06
2023-02-16T05:32:55.727Z,4.01
2023-02-16T05:33:55.708Z,3.99
2023-02-16T05:34:55.699Z,4.05
2023-02-16T05:35:55.701Z,4.02
2023-02-16T05:36:55.677Z,4.01
2023-02-16T05:37:55.683Z,4.01
2023-02-16T05:38:55.673Z,3.99
2023-02-16T05:39:55.666Z,4.05
2023-02-16T05:40:55.640Z,4.02
2023-02-16T05:41:55.629Z,3.98
2023-02-16T05:42:55.659Z,3.88
2023-02-16T05:43:55.623Z,3.83
2023-02-16T05:44:55.633Z,3.86
2023-02-16T05:45:55.654Z,3.83
2023-02-16T05:46:55.604Z,3.86
2023-02-16T05:47:55.612Z,3.88
2023-02-16T05:48:55.572Z,3.87
2023-02-16T05:49:55.570Z,3.86
2023-02-16T05:50:55.547Z,3.87
2023-02-16T05:51:55.568Z,3.81
2023-02-16T05:52:55.536Z,3.88
2023-02-16T05:53:55.521Z,3.86
2023-02-16T05:54:55.515Z,3.84
2023-02-16T05:55:55.530Z,3.92
2023-02-16T05:56:55.511Z,3.87
2023-02-16T05:57:55.535Z,3.86
2023-02-16T05:58:55.480Z,3.86
2023-02-16T05:59:55.517Z,3.94
2023-02-16T06:00:55.455Z,3.94
2023-02-16T06:01:55.461Z,3.84
2023-02-16T06:02:55.481Z,3.91
2023-02-16T06:03:55.482Z,3.88
2023-02-16T06:04:55.430Z,3.84
2023-02-16T06:05:55.424Z,3.87
2023-02-16T06:06:55.396Z,3.84
2023-02-16T06:07:55.393Z,3.84
2023-02-16T06:08:55.393Z,3.83
2023-02-16T06:09:55.414Z,3.83
2023-02-16T06:10:55.411Z,3.84
2023-02-16T06:11:55.358Z,3.86
2023-02-16T06:12:55.333Z,3.83
2023-02-16T06:13:55.336Z,3.83
2023-02-16T06:14:55.321Z,3.86
2023-02-16T06:15:55.382Z,3.76
2023-02-16T06:16:55.335Z,3.83
2023-02-16T06:17:55.294Z,3.86
2023-02-16T06:18:55.292Z,3.81
2023-02-16T06:19:55.383Z,3.78
2023-02-16T06:20:55.282Z,3.80
2023-02-16T06:21:55.271Z,3.88
2023-02-16T06:22:55.244Z,3.88
2023-02-16T06:23:55.242Z,3.80
2023-02-16T06:24:55.222Z,3.84
2023-02-16T06:25:55.216Z,3.78
2023-02-16T06:26:55.209Z,3.81
2023-02-16T06:27:55.250Z,3.78
2023-02-16T06:28:55.191Z,3.81
2023-02-16T06:29:55.202Z,3.81
2023-02-16T06:30:55.180Z,3.84
2023-02-16T06:31:55.316Z,3.86
2023-02-16T06:32:55.149Z,3.91
2023-02-16T06:33:55.143Z,3.87
2023-02-16T06:34:55.148Z,3.91
2023-02-16T06:35:55.177Z,3.87
2023-02-16T06:36:55.112Z,3.88
2023-02-16T06:37:55.100Z,3.87
2023-02-16T06:38:55.087Z,3.87
2023-02-16T06:39:55.097Z,3.86
2023-02-16T06:40:55.074Z,3.91
2023-02-16T06:41:55.077Z,3.88
2023-02-16T06:42:55.049Z,3.96
2023-02-16T06:43:55.071Z,3.83
2023-02-16T06:44:55.029Z,3.98
2023-02-16T06:45:55.037Z,3.95
2023-02-16T06:46:55.131Z,3.94
2023-02-16T06:47:55.021Z,4.01
2023-02-16T06:48:55.018Z,3.99
2023-02-16T06:49:55.011Z,3.98
2023-02-16T06:50:54.983Z,4.06
2023-02-16T06:51:54.970Z,4.50
2023-02-16T06:52:54.951Z,4.96
2023-02-16T06:53:54.966Z,5.43
2023-02-16T06:54:54.954Z,5.86
2023-02-16T06:55:54.927Z,6.28
2023-02-16T06:56:54.917Z,6.75
2023-02-16T06:57:54.916Z,6.97
2023-02-16T06:58:54.910Z,7.18
2023-02-16T06:59:54.901Z,7.39
2023-02-16T07:00:54.920Z,7.57
2023-02-16T07:01:54.875Z,7.75
2023-02-16T07:02:54.928Z,7.85
2023-02-16T07:03:54.868Z,7.85
2023-02-16T07:04:54.879Z,7.95
2023-02-16T07:05:54.856Z,8.09
2023-02-16T07:06:54.851Z,8.16
2023-02-16T07:07:54.846Z,8.27
2023-02-16T07:08:54.846Z,8.38
2023-02-16T07:09:54.798Z,8.48
2023-02-16T07:10:54.796Z,8.53
2023-02-16T07:11:54.776Z,8.64
2023-02-16T07:12:54.799Z,8.76
2023-02-16T07:13:54.767Z,8.89
2023-02-16T07:14:54.783Z,8.81
2023-02-16T07:15:54.798Z,8.63
2023-02-16T07:16:54.905Z,8.37
2023-02-16T07:17:54.737Z,8.06
2023-02-16T07:18:54.744Z,7.73
2023-02-16T07:19:54.757Z,7.40
2023-02-16T07:20:54.709Z,7.23
2023-02-16T07:21:54.738Z,7.03
2023-02-16T07:22:54.685Z,6.82
2023-02-16T07:23:54.672Z,6.74
2023-02-16T07:24:54.690Z,6.60
2023-02-16T07:25:54.660Z,6.46
2023-02-16T07:26:54.667Z,6.35
2023-02-16T07:27:54.662Z,6.30
2023-02-16T07:28:54.638Z,6.08
2023-02-16T07:29:54.715Z,6.04
2023-02-16T07:30:54.706Z,6.05
2023-02-16T07:31:54.726Z,5.93
2023-02-16T07:32:54.616Z,5.79
2023-02-16T07:33:54.606Z,5.73
2023-02-16T07:34:54.627Z,5.72
2023-02-16T07:35:54.592Z,5.69
2023-02-16T07:36:54.568Z,5.66
2023-02-16T07:37:54.565Z,5.53
2023-02-16T07:38:54.558Z,5.53
2023-02-16T07:39:54.547Z,5.39
2023-02-16T07:40:54.532Z,5.41
2023-02-16T07:41:54.520Z,5.41
2023-02-16T07:42:54.543Z,5.43
2023-02-16T07:43:54.504Z,5.41
2023-02-16T07:44:54.510Z,5.35
2023-02-16T07:45:54.613Z,5.36
2023-02-16T07:46:54.500Z,5.32
2023-02-16T07:47:54.480Z,5.36
2023-02-16T07:48:54.484Z,5.32
2023-02-16T07:49:54.465Z,5.29
2023-02-16T07:50:54.467Z,5.18
2023-02-16T07:51:54.449Z,5.26
2023-02-16T07:52:54.441Z,5.20
2023-02-16T07:53:54.439Z,5.18
2023-02-16T07:54:54.428Z,5.21
2023-02-16T07:55:54.421Z,5.23
2023-02-16T07:56:54.401Z,5.26
2023-02-16T07:57:54.393Z,5.17
2023-02-16T07:58:54.426Z,5.26
2023-02-16T07:59:54.384Z,5.15
2023-02-16T08:00:54.373Z,5.10
2023-02-16T08:01:54.496Z,5.05
2023-02-16T08:02:54.535Z,5.07
2023-02-16T08:03:54.347Z,5.14
2023-02-16T08:04:54.356Z,5.12
2023-02-16T08:05:54.327Z,5.11
2023-02-16T08:06:54.321Z,5.11
2023-02-16T08:07:54.310Z,5.07
2023-02-16T08:08:54.363Z,5.18
2023-02-16T08:09:54.322Z,5.15
2023-02-16T08:10:54.284Z,5.18
2023-02-16T08:11:54.313Z,5.15
2023-02-16T08:12:54.286Z,5.30
2023-02-16T08:13:54.269Z,5.30
2023-02-16T08:14:54.266Z,5.29
2023-02-16T08:15:54.255Z,5.30
2023-02-16T08:16:56.350Z,5.39
2023-02-16T08:17:54.238Z,5.51
2023-02-16T08:18:54.226Z,5.73
2023-02-16T08:19:54.248Z,5.94
2023-02-16T08:21:03.693Z,6.41
2023-02-16T08:21:54.208Z,6.74
2023-02-16T08:22:54.195Z,6.84
2023-02-16T08:23:54.224Z,7.02
2023-02-16T08:24:54.204Z,7.18
2023-02-16T08:25:54.174Z,7.32
2023-02-16T08:26:54.172Z,7.54
2023-02-16T08:27:54.164Z,7.73
2023-02-16T08:28:54.172Z,8.00
2023-02-16T08:29:54.219Z,8.03
2023-02-16T08:30:54.228Z,8.23
2023-02-16T08:31:54.199Z,8.36
2023-02-16T08:32:54.168Z,8.52
2023-02-16T08:33:54.156Z,8.81
2023-02-16T08:34:54.137Z,8.95
2023-02-16T08:35:54.148Z,9.34
2023-02-16T08:36:54.142Z,9.62
2023-02-16T08:37:54.131Z,9.95
2023-02-16T08:38:54.137Z,10.30
2023-02-16T08:39:54.121Z,10.51
2023-02-16T08:40:54.140Z,10.76
2023-02-16T08:41:54.136Z,10.99
2023-02-16T08:42:54.170Z,11.10
2023-02-16T08:43:54.134Z,11.26
2023-02-16T08:44:54.316Z,11.41
2023-02-16T08:45:54.198Z,11.44
2023-02-16T08:46:54.141Z,11.51
2023-02-16T08:47:54.140Z,11.57
2023-02-16T08:48:55.853Z,11.54
2023-02-16T08:49:54.281Z,11.65
2023-02-16T08:50:54.147Z,11.63
2023-02-16T08:51:54.156Z,11.62
2023-02-16T08:52:54.167Z,11.65
2023-02-16T08:53:54.153Z,11.66
2023-02-16T08:54:54.168Z,11.66
2023-02-16T08:55:54.167Z,11.69
2023-02-16T08:56:54.194Z,11.84
2023-02-16T08:57:54.166Z,11.97
2023-02-16T08:58:54.168Z,12.00
2023-02-16T08:59:54.179Z,11.99
2023-02-16T09:00:54.206Z,12.15
2023-02-16T09:01:54.177Z,12.24
2023-02-16T09:02:54.199Z,12.27
2023-02-16T09:03:54.189Z,12.18
2023-02-16T09:04:54.230Z,12.27
2023-02-16T09:05:54.210Z,12.35
2023-02-16T09:06:54.228Z,12.29
2023-02-16T09:07:54.209Z,12.37
2023-02-16T09:08:54.232Z,12.35
2023-02-16T09:09:54.227Z,12.18
2023-02-16T09:10:54.253Z,12.18
2023-02-16T09:11:54.274Z,12.22
2023-02-16T09:12:54.249Z,12.18
2023-02-16T09:13:54.280Z,12.18
2023-02-16T09:14:54.270Z,12.02
2023-02-16T09:15:54.276Z,11.83
2023-02-16T09:16:54.368Z,11.75
2023-02-16T09:17:54.269Z,11.55
2023-02-16T09:18:54.313Z,11.32
2023-02-16T09:19:54.268Z,11.15
2023-02-16T09:20:54.296Z,11.04
2023-02-16T09:21:54.339Z,10.96
2023-02-16T09:22:54.308Z,10.86
2023-02-16T09:23:54.288Z,10.75
2023-02-16T09:24:54.297Z,10.64
2023-02-16T09:25:54.320Z,10.49
2023-02-16T09:26:54.335Z,10.22
2023-02-16T09:27:54.300Z,10.33
2023-02-16T09:28:54.326Z,10.30
2023-02-16T09:29:54.385Z,10.25
2023-02-16T09:30:54.409Z,10.25
2023-02-16T09:31:54.379Z,10.20
2023-02-16T09:32:54.345Z,10.15
2023-02-16T09:33:54.329Z,10.17
2023-02-16T09:34:54.326Z,10.10
2023-02-16T09:35:54.369Z,10.02
2023-02-16T09:36:54.348Z,10.04
2023-02-16T09:37:54.324Z,9.97
2023-02-16T09:38:54.350Z,9.87
2023-02-16T09:39:54.313Z,9.76
2023-02-16T09:40:54.316Z,9.86
2023-02-16T09:41:54.358Z,9.98
2023-02-16T09:42:54.325Z,9.99
2023-02-16T09:43:54.311Z,10.05
2023-02-16T09:44:54.319Z,10.10
2023-02-16T09:45:54.325Z,10.15
2023-02-16T09:46:54.311Z,10.17
2023-02-16T09:47:54.300Z,10.13
2023-02-16T09:48:54.330Z,10.20
2023-02-16T09:49:54.318Z,10.31
2023-02-16T09:50:54.887Z,10.26
2023-02-16T09:51:54.302Z,10.34
2023-02-16T09:52:54.302Z,10.37
2023-02-16T09:53:54.288Z,10.40
2023-02-16T09:54:54.302Z,10.44
2023-02-16T09:55:54.300Z,10.46
2023-02-16T09:56:54.297Z,10.46
2023-02-16T09:57:54.288Z,10.31
2023-02-16T09:58:54.278Z,10.30
2023-02-16T09:59:54.278Z,10.37
2023-02-16T10:00:54.274Z,10.23
2023-02-16T10:01:54.274Z,10.28
2023-02-16T10:02:54.272Z,10.16
2023-02-16T10:03:54.266Z,10.17
2023-02-16T10:04:54.270Z,10.12
2023-02-16T10:05:54.245Z,10.05
2023-02-16T10:06:54.242Z,10.07
2023-02-16T10:07:54.257Z,10.13
2023-02-16T10:08:54.253Z,10.16
2023-02-16T10:09:54.240Z,10.20
2023-02-16T10:10:54.247Z,10.25
2023-02-16T10:11:54.231Z,10.37
2023-02-16T10:12:54.223Z,10.26
2023-02-16T10:13:54.238Z,10.35
2023-02-16T10:14:54.235Z,10.33
2023-02-16T10:15:54.355Z,10.28
2023-02-16T10:16:54.213Z,10.22
2023-02-16T10:17:54.213Z,10.35
2023-02-16T10:18:54.215Z,10.51
2023-02-16T10:19:54.212Z,10.57
2023-02-16T10:20:54.191Z,10.60
2023-02-16T10:21:54.189Z,10.61
2023-02-16T10:22:54.209Z,10.63
2023-02-16T10:23:54.177Z,10.69
2023-02-16T10:24:54.175Z,10.63
2023-02-16T10:25:54.183Z,10.59
2023-02-16T10:26:54.197Z,10.57
2023-02-16T10:27:54.171Z,10.64
2023-02-16T10:28:54.163Z,10.64
2023-02-16T10:29:54.204Z,10.74
2023-02-16T10:30:54.277Z,10.64
2023-02-16T10:31:54.252Z,10.60
2023-02-16T10:32:54.152Z,10.56
2023-02-16T10:33:54.148Z,10.44
2023-02-16T10:34:54.140Z,10.35
2023-02-16T10:35:54.138Z,10.35
2023-02-16T10:36:54.137Z,10.31
2023-02-16T10:37:54.150Z,10.35
2023-02-16T10:38:54.143Z,10.28
2023-02-16T10:39:54.142Z,10.26
2023-02-16T10:40:54.160Z,10.25
2023-02-16T10:41:54.131Z,10.19
2023-02-16T10:42:54.123Z,10.23
2023-02-16T10:43:54.115Z,10.28
2023-02-16T10:44:54.111Z,10.28
2023-02-16T10:45:54.093Z,10.30
2023-02-16T10:46:54.101Z,10.26
2023-02-16T10:47:54.082Z,10.26
2023-02-16T10:48:54.092Z,10.30
2023-02-16T10:49:54.081Z,10.10
2023-02-16T10:50:54.088Z,10.15
2023-02-16T10:51:54.083Z,10.22
2023-02-16T10:52:54.073Z,10.16
2023-02-16T10:53:54.061Z,10.15
2023-02-16T10:54:54.061Z,10.12
2023-02-16T10:55:54.068Z,10.07
2023-02-16T10:56:54.057Z,10.12
2023-02-16T10:57:54.045Z,10.02
2023-02-16T10:58:54.089Z,10.04
2023-02-16T10:59:54.049Z,9.97
2023-02-16T11:00:54.037Z,10.01
2023-02-16T11:01:54.175Z,9.99
2023-02-16T11:02:54.034Z,10.02
2023-02-16T11:03:54.023Z,9.95
2023-02-16T11:04:54.031Z,9.89
2023-02-16T11:05:54.047Z,9.89
2023-02-16T11:06:54.011Z,9.97
2023-02-16T11:07:54.010Z,9.97
2023-02-16T11:08:54.001Z,10.01
2023-02-16T11:09:53.999Z,9.97
2023-02-16T11:10:53.999Z,9.95
2023-02-16T11:11:54.076Z,9.97
2023-02-16T11:12:54.001Z,9.97
2023-02-16T11:13:53.999Z,9.92
2023-02-16T11:14:53.986Z,9.95
2023-02-16T11:15:54.009Z,9.99
2023-02-16T11:16:53.971Z,10.05
2023-02-16T11:17:53.960Z,10.01
2023-02-16T11:18:53.962Z,10.02
2023-02-16T11:19:53.981Z,10.12
2023-02-16T11:20:53.955Z,10.12
2023-02-16T11:21:53.942Z,10.16
2023-02-16T11:22:53.949Z,10.23
2023-02-16T11:23:53.937Z,10.16
2023-02-16T11:24:53.932Z,10.13
2023-02-16T11:25:53.931Z,10.15
2023-02-16T11:26:53.934Z,10.17
2023-02-16T11:27:53.923Z,10.19
2023-02-16T11:28:53.923Z,10.19
2023-02-16T11:29:53.999Z,10.15
2023-02-16T11:30:54.007Z,10.22
2023-02-16T11:31:54.106Z,10.23
2023-02-16T11:32:53.923Z,10.20
2023-02-16T11:33:53.895Z,10.16
2023-02-16T11:34:53.886Z,10.23
2023-02-16T11:35:53.895Z,10.26
2023-02-16T11:36:53.888Z,10.20
2023-02-16T11:37:53.888Z,10.33
2023-02-16T11:38:53.874Z,10.37
2023-02-16T11:39:54.544Z,10.34
2023-02-16T11:40:53.872Z,10.22
2023-02-16T11:41:53.904Z,10.28
2023-02-16T11:42:53.887Z,10.35
2023-02-16T11:43:53.851Z,10.31
2023-02-16T11:44:53.840Z,10.26
2023-02-16T11:45:53.876Z,10.28
2023-02-16T11:46:53.876Z,10.30
2023-02-16T11:47:53.848Z,10.35
2023-02-16T11:48:53.822Z,10.28
2023-02-16T11:49:53.834Z,10.26
2023-02-16T11:50:54.619Z,10.38
2023-02-16T11:51:53.816Z,10.37
2023-02-16T11:52:53.796Z,10.40
2023-02-16T11:53:53.801Z,10.46
2023-02-16T11:54:53.794Z,10.44
2023-02-16T11:55:53.791Z,10.44
2023-02-16T11:56:53.808Z,10.49
2023-02-16T11:57:53.802Z,10.49
2023-02-16T11:58:53.787Z,10.49
2023-02-16T11:59:53.772Z,10.46
2023-02-16T12:00:53.770Z,10.42
2023-02-16T12:01:53.793Z,10.46
2023-02-16T12:02:53.760Z,10.48
2023-02-16T12:03:53.779Z,10.48
2023-02-16T12:04:53.804Z,10.44
2023-02-16T12:05:53.750Z,10.48
2023-02-16T12:06:53.757Z,10.53
2023-02-16T12:07:53.751Z,10.54
2023-02-16T12:08:53.747Z,10.59
2023-02-16T12:09:53.736Z,10.56
2023-02-16T12:10:53.735Z,10.61
2023-02-16T12:11:53.726Z,10.57
2023-02-16T12:12:53.720Z,10.57
2023-02-16T12:13:53.715Z,10.56
2023-02-16T12:14:53.714Z,10.63
2023-02-16T12:15:53.777Z,10.64
2023-02-16T12:16:53.716Z,10.69
2023-02-16T12:17:53.701Z,10.69
2023-02-16T12:18:53.704Z,10.72
2023-02-16T12:19:53.700Z,10.71
2023-02-16T12:20:53.688Z,10.76
2023-02-16T12:21:53.686Z,10.79
2023-02-16T12:22:53.676Z,10.74
2023-02-16T12:23:53.674Z,10.79
2023-02-16T12:24:53.695Z,10.79
2023-02-16T12:25:53.673Z,10.76
2023-02-16T12:26:53.665Z,10.82
2023-02-16T12:27:53.673Z,10.87
2023-02-16T12:28:53.647Z,10.79
2023-02-16T12:29:53.715Z,10.84
2023-02-16T12:30:53.672Z,10.82
2023-02-16T12:31:53.678Z,10.81
2023-02-16T12:32:53.644Z,10.87
2023-02-16T12:33:53.627Z,10.86
2023-02-16T12:34:53.626Z,10.87
2023-02-16T12:35:53.628Z,10.92
2023-02-16T12:36:53.632Z,11.02
2023-02-16T12:37:53.628Z,11.00
2023-02-16T12:38:53.605Z,11.00
2023-02-16T12:39:53.622Z,10.93
2023-02-16T12:40:53.602Z,10.90
2023-02-16T12:41:53.602Z,10.97
2023-02-16T12:42:53.591Z,10.94
2023-02-16T12:43:53.590Z,10.90
2023-02-16T12:44:53.576Z,11.05
2023-02-16T12:45:53.617Z,11.02
2023-02-16T12:46:53.573Z,11.00
2023-02-16T12:47:53.577Z,11.08
2023-02-16T12:48:53.570Z,11.04
2023-02-16T12:49:53.605Z,11.05
2023-02-16T12:50:53.558Z,11.07
2023-02-16T12:51:53.552Z,11.00
2023-02-16T12:52:53.620Z,11.02
2023-02-16T12:53:53.546Z,11.05
2023-02-16T12:54:53.544Z,11.05
2023-02-16T12:55:53.540Z,11.07
2023-02-16T12:56:53.536Z,11.08
2023-02-16T12:57:53.528Z,11.07
2023-02-16T12:58:53.565Z,11.00
2023-02-16T12:59:53.526Z,11.02
2023-02-16T13:00:53.551Z,11.08
2023-02-16T13:01:53.528Z,11.05
2023-02-16T13:02:53.511Z,11.08
2023-02-16T13:03:53.565Z,11.08
2023-02-16T13:04:53.548Z,11.05
2023-02-16T13:05:53.511Z,11.12
2023-02-16T13:06:55.779Z,11.05
2023-02-16T13:07:53.507Z,11.08
2023-02-16T13:08:53.514Z,11.07
2023-02-16T13:09:53.510Z,11.12
2023-02-16T13:10:53.496Z,11.22